Etusivu
METAR-TAF:

METAR-TAF

Lentoasemat :

Fairfield Municipal Airport

Fairfield, Illinois, Yhdysvallat

Leveyspiiri: 38-22-43N, Pituuspiiri: 088-24-46W, korkeus merenpinnasta: 133 m

Tämänhetkinen sää

Tämä raportti tehtiin 31 minuuttia sitten, kello 16.35 UTC
Tuuli 4 kn etelästä
Lämpötila 4°C
Kosteus 56%
Ilmanpaine 1030 hPa
Näkyvyys: 16.1 km
selkeää

METAR: KFWC 221635Z AUTO 17004KT 10SM CLR 04/M04 A3042 RMK AO1 T00381036

Aika: 11:06 (17:06 UTC)


TAF: puuttuu

Säähavainnot ja -ennusteet yli 4000 lentoasemalta (METAR- ja TAF-raportit).

Käytössä olevat sääasemat on merkitty karttaan keltaisilla ja punaisilla pisteillä.

Aseta hiiri pisteen päälle nähdäksesi sääaseman nimen.

Klikkaa sitten nähdäksesi säähavainnot ja -ennusteet.

Kartan vaihtaminen: klikkaa mustalla rastilla varustettuja vihreitä pisteitä, niin voit zoomata sisään; viivalla varustettua vihreää pistettä, niin voit zoomata ulos tai vihreitä nuolia, niin pääset viereisille kartoille.


METAR-TAF: